Time;durP1;ratioP1;P1;durP2;ratioP2;P2;SDS_P1;SDS_P2;PMS_P1;PMS_P2;Temp;Humidity;BMP_temperature;BMP_pressure;BME280_temperature;BME280_humidity;BME280_pressure;Samples;Min_cycle;Max_cycle;Signal;HPM_P1;HPM_P2
2024/03/04 00:01:04;;;;;;;60.88;37.67;;;;;;;;;;5075003;28;20016;-76
2024/03/04 00:03:30;;;;;;;53.78;30.50;;;;;;;;;;5074163;28;20020;-77
2024/03/04 00:05:56;;;;;;;61.58;37.08;;;;;;;;;;5073926;28;20099;-76
2024/03/04 00:08:22;;;;;;;50.83;29.35;;;;;;;;;;5075227;28;20017;-78
2024/03/04 00:10:48;;;;;;;68.30;40.67;;;;;;;;;;5073706;28;20134;-77
2024/03/04 00:13:14;;;;;;;66.53;43.08;;;;;;;;;;5075241;28;20024;-77
2024/03/04 00:15:40;;;;;;;58.30;33.33;;;;;;;;;;5075166;28;20070;-76
2024/03/04 00:18:06;;;;;;;64.45;38.90;;;;;;;;;;5074796;28;20055;-77
2024/03/04 00:20:33;;;;;;;72.72;43.50;;;;;;;;;;5075094;28;20523;-77
2024/03/04 00:23:00;;;;;;;69.25;41.60;;;;;;;;;;5073378;28;20037;-77
2024/03/04 00:25:26;;;;;;;74.63;42.47;;;;;;;;;;5074942;28;20398;-78
2024/03/04 00:27:52;;;;;;;62.65;38.33;;;;;;;;;;5073625;28;20028;-77
2024/03/04 00:30:18;;;;;;;58.47;35.35;;;;;;;;;;5074946;28;20016;-78
2024/03/04 00:32:45;;;;;;;60.22;35.55;;;;;;;;;;5074847;28;20025;-77
2024/03/04 00:35:13;;;;;;;62.22;36.83;;;;;;;;;;5073308;28;20460;-78
2024/03/04 00:37:41;;;;;;;67.13;38.72;;;;;;;;;;5073502;28;20024;-77
2024/03/04 00:40:12;;;;;;;60.55;36.95;;;;;;;;;;5074198;28;20082;-77
2024/03/04 00:42:38;;;;;;;54.53;32.70;;;;;;;;;;5073344;28;20033;-78
2024/03/04 00:45:05;;;;;;;58.25;35.08;;;;;;;;;;5074205;28;20422;-76
2024/03/04 00:47:32;;;;;;;47.00;27.73;;;;;;;;;;5072811;28;20078;-77
2024/03/04 00:49:58;;;;;;;53.97;33.33;;;;;;;;;;5073164;28;20081;-76
2024/03/04 00:52:24;;;;;;;50.30;31.40;;;;;;;;;;5074387;28;20111;-79
2024/03/04 00:54:50;;;;;;;58.25;33.17;;;;;;;;;;5075095;28;20025;-77
2024/03/04 00:57:17;;;;;;;50.45;28.83;;;;;;;;;;5072984;28;20036;-76
2024/03/04 00:59:43;;;;;;;56.22;31.77;;;;;;;;;;5073070;28;20066;-77
2024/03/04 01:02:11;;;;;;;55.78;31.98;;;;;;;;;;5072874;28;20029;-77
2024/03/04 01:04:39;;;;;;;54.13;33.03;;;;;;;;;;5073083;28;20028;-78
2024/03/04 01:07:05;;;;;;;51.83;31.40;;;;;;;;;;5073013;28;20024;-76
2024/03/04 01:09:31;;;;;;;47.15;28.98;;;;;;;;;;5074391;28;20074;-76
2024/03/04 01:11:57;;;;;;;46.17;30.35;;;;;;;;;;5072889;28;20036;-76
2024/03/04 01:14:23;;;;;;;47.92;32.38;;;;;;;;;;5074278;28;20440;-77
2024/03/04 01:16:49;;;;;;;44.70;28.63;;;;;;;;;;5072845;28;20082;-78
2024/03/04 01:19:15;;;;;;;48.50;30.05;;;;;;;;;;5072528;28;20048;-77
2024/03/04 01:21:41;;;;;;;52.15;34.13;;;;;;;;;;5072649;28;20029;-78
2024/03/04 01:24:09;;;;;;;49.65;30.50;;;;;;;;;;5072439;28;20028;-77
2024/03/04 01:26:36;;;;;;;47.80;29.83;;;;;;;;;;5072319;28;20024;-78
2024/03/04 01:29:03;;;;;;;47.28;29.23;;;;;;;;;;5072420;28;20056;-78
2024/03/04 01:31:29;;;;;;;39.58;25.58;;;;;;;;;;5072505;28;20024;-78
2024/03/04 01:33:55;;;;;;;31.15;19.73;;;;;;;;;;5073823;28;20021;-79
2024/03/04 01:36:21;;;;;;;27.58;16.67;;;;;;;;;;5072097;28;20020;-78
2024/03/04 01:38:48;;;;;;;42.45;28.10;;;;;;;;;;5072465;28;20024;-76
2024/03/04 01:41:14;;;;;;;37.28;24.02;;;;;;;;;;5072052;28;20028;-76
2024/03/04 01:43:40;;;;;;;38.28;24.80;;;;;;;;;;5072275;28;20024;-76
2024/03/04 01:46:09;;;;;;;49.65;32.00;;;;;;;;;;5073283;28;20027;-76
2024/03/04 01:48:35;;;;;;;41.30;26.73;;;;;;;;;;5073407;28;20090;-77
2024/03/04 01:51:02;;;;;;;52.40;32.47;;;;;;;;;;5071939;28;20021;-77
2024/03/04 01:53:28;;;;;;;55.25;31.77;;;;;;;;;;5073341;28;20020;-77
2024/03/04 01:55:56;;;;;;;56.45;34.65;;;;;;;;;;5072025;28;20119;-78
2024/03/04 01:58:23;;;;;;;51.55;31.92;;;;;;;;;;5070768;28;20495;-78
2024/03/04 02:00:50;;;;;;;50.42;30.70;;;;;;;;;;5072008;28;20052;-78
2024/03/04 02:03:17;;;;;;;55.13;33.75;;;;;;;;;;5072954;28;20039;-77
2024/03/04 02:05:44;;;;;;;58.40;32.50;;;;;;;;;;5071800;28;20476;-78
2024/03/04 02:08:12;;;;;;;52.25;31.40;;;;;;;;;;5071576;28;20025;-78
2024/03/04 02:10:39;;;;;;;59.15;36.03;;;;;;;;;;5071903;28;20035;-78
2024/03/04 02:13:05;;;;;;;41.58;24.58;;;;;;;;;;5071545;28;20025;-76
2024/03/04 02:15:34;;;;;;;69.10;41.00;;;;;;;;;;5071639;28;20028;-77
2024/03/04 02:18:01;;;;;;;47.73;27.23;;;;;;;;;;5072699;28;20056;-77
2024/03/04 02:20:27;;;;;;;65.22;38.85;;;;;;;;;;5071663;28;20633;-77
2024/03/04 02:22:54;;;;;;;59.75;36.08;;;;;;;;;;5071453;28;20062;-77
2024/03/04 02:25:22;;;;;;;69.68;39.45;;;;;;;;;;5072942;28;20070;-77
2024/03/04 02:27:48;;;;;;;67.20;40.17;;;;;;;;;;5071814;28;20032;-78
2024/03/04 02:30:15;;;;;;;66.75;37.25;;;;;;;;;;5072266;28;20456;-77
2024/03/04 02:32:41;;;;;;;75.97;43.45;;;;;;;;;;5071129;28;20037;-78
2024/03/04 02:35:08;;;;;;;49.60;30.23;;;;;;;;;;5071211;28;20541;-76
2024/03/04 02:37:37;;;;;;;66.70;38.95;;;;;;;;;;5072595;28;20031;-76
2024/03/04 02:40:06;;;;;;;76.80;46.47;;;;;;;;;;5071535;28;20044;-78
2024/03/04 02:42:32;;;;;;;71.40;44.08;;;;;;;;;;5071912;28;20496;-77
2024/03/04 02:44:59;;;;;;;63.97;34.80;;;;;;;;;;5071996;28;20451;-77
2024/03/04 02:47:25;;;;;;;76.50;44.38;;;;;;;;;;5072069;28;20060;-77
2024/03/04 02:49:51;;;;;;;64.28;37.75;;;;;;;;;;5071145;28;20017;-77
2024/03/04 02:52:17;;;;;;;51.53;31.02;;;;;;;;;;5070934;28;20384;-78
2024/03/04 02:54:43;;;;;;;48.75;28.83;;;;;;;;;;5071106;28;20027;-78
2024/03/04 02:57:10;;;;;;;57.08;35.03;;;;;;;;;;5072363;28;20066;-78
2024/03/04 02:59:37;;;;;;;53.13;32.17;;;;;;;;;;5071055;28;20029;-79
2024/03/04 03:02:05;;;;;;;51.67;31.55;;;;;;;;;;5070947;28;20029;-78
2024/03/04 03:04:31;;;;;;;49.28;26.98;;;;;;;;;;5070946;28;20024;-78
2024/03/04 03:06:57;;;;;;;42.00;24.67;;;;;;;;;;5072290;28;20020;-78
2024/03/04 03:09:24;;;;;;;44.92;27.42;;;;;;;;;;5071718;28;20898;-77
2024/03/04 03:11:50;;;;;;;30.75;21.30;;;;;;;;;;5070668;28;20035;-78
2024/03/04 03:14:16;;;;;;;34.55;20.88;;;;;;;;;;5070707;28;20063;-78
2024/03/04 03:16:42;;;;;;;31.40;17.42;;;;;;;;;;5071068;28;20044;-78
2024/03/04 03:19:08;;;;;;;28.85;16.35;;;;;;;;;;5072010;28;20089;-78
2024/03/04 03:21:34;;;;;;;27.30;14.43;;;;;;;;;;5070841;28;20024;-78
2024/03/04 03:24:03;;;;;;;22.73;11.88;;;;;;;;;;5070885;28;20021;-77
2024/03/04 03:26:29;;;;;;;22.23;11.27;;;;;;;;;;5070730;28;20020;-77
2024/03/04 03:28:56;;;;;;;23.50;11.95;;;;;;;;;;5072256;28;20017;-77
2024/03/04 03:31:23;;;;;;;28.92;13.18;;;;;;;;;;5070379;28;20032;-76
2024/03/04 03:33:49;;;;;;;22.25;11.75;;;;;;;;;;5070794;28;20032;-76
2024/03/04 03:36:15;;;;;;;21.60;10.73;;;;;;;;;;5070659;28;20021;-77
2024/03/04 03:38:44;;;;;;;24.15;11.25;;;;;;;;;;5070718;28;20056;-78
2024/03/04 03:41:10;;;;;;;23.10;11.00;;;;;;;;;;5070237;28;20021;-78
2024/03/04 03:43:36;;;;;;;20.40;9.18;;;;;;;;;;5070567;28;20472;-78
2024/03/04 03:46:02;;;;;;;17.85;8.57;;;;;;;;;;5071902;28;20021;-77
2024/03/04 03:48:28;;;;;;;15.65;7.15;;;;;;;;;;5070370;28;20116;-77
2024/03/04 03:50:54;;;;;;;14.95;8.32;;;;;;;;;;5070616;28;20117;-78
2024/03/04 03:53:22;;;;;;;18.02;9.38;;;;;;;;;;5071598;28;20472;-78
2024/03/04 03:55:48;;;;;;;23.75;10.73;;;;;;;;;;5070213;28;20081;-77
2024/03/04 03:58:14;;;;;;;16.90;9.00;;;;;;;;;;5070275;28;20024;-75
2024/03/04 04:00:41;;;;;;;16.27;8.30;;;;;;;;;;5070545;28;20198;-76
2024/03/04 04:03:07;;;;;;;23.02;8.73;;;;;;;;;;5070412;28;20487;-76
2024/03/04 04:05:33;;;;;;;21.40;8.88;;;;;;;;;;5070154;28;20024;-76
2024/03/04 04:07:59;;;;;;;21.05;10.30;;;;;;;;;;5071705;28;20067;-77
2024/03/04 04:10:25;;;;;;;18.63;8.75;;;;;;;;;;5070184;28;20025;-77
2024/03/04 04:12:54;;;;;;;16.90;7.78;;;;;;;;;;5071768;28;20028;-76
2024/03/04 04:15:20;;;;;;;20.67;7.97;;;;;;;;;;5069783;28;20051;-76
2024/03/04 04:17:46;;;;;;;15.65;8.68;;;;;;;;;;5069997;28;20416;-76
2024/03/04 04:20:12;;;;;;;20.40;8.38;;;;;;;;;;5070066;28;20384;-77
2024/03/04 04:22:38;;;;;;;24.52;8.93;;;;;;;;;;5072819;28;20086;-76
2024/03/04 04:25:04;;;;;;;13.00;7.05;;;;;;;;;;5073956;28;20024;-76
2024/03/04 04:27:31;;;;;;;16.40;7.43;;;;;;;;;;5073291;28;20036;-76
2024/03/04 04:29:58;;;;;;;17.67;8.55;;;;;;;;;;5073781;28;20029;-76
2024/03/04 04:32:26;;;;;;;22.08;8.95;;;;;;;;;;5073651;28;20035;-77
2024/03/04 04:34:52;;;;;;;15.60;7.65;;;;;;;;;;5075327;28;20151;-75
2024/03/04 04:37:18;;;;;;;17.35;8.13;;;;;;;;;;5074474;28;20048;-75
2024/03/04 04:39:44;;;;;;;18.45;8.25;;;;;;;;;;5073994;28;20182;-76
2024/03/04 04:42:10;;;;;;;13.23;5.85;;;;;;;;;;5075664;28;20039;-77
2024/03/04 04:44:36;;;;;;;23.27;8.98;;;;;;;;;;5073722;28;20028;-78
2024/03/04 04:47:03;;;;;;;17.23;10.30;;;;;;;;;;5074803;28;20062;-78
2024/03/04 04:49:29;;;;;;;17.88;10.30;;;;;;;;;;5073264;28;20043;-77
2024/03/04 04:51:55;;;;;;;16.73;9.95;;;;;;;;;;5073332;28;20028;-77
2024/03/04 04:54:21;;;;;;;14.73;7.25;;;;;;;;;;5074135;28;20052;-78
2024/03/04 04:56:48;;;;;;;17.58;8.35;;;;;;;;;;5073286;28;20020;-76
2024/03/04 04:59:15;;;;;;;17.30;8.88;;;;;;;;;;5074299;28;20052;-78
2024/03/04 05:01:41;;;;;;;14.80;7.75;;;;;;;;;;5074502;28;20037;-77
2024/03/04 05:04:07;;;;;;;17.20;7.88;;;;;;;;;;5074483;28;20028;-76
2024/03/04 05:06:34;;;;;;;16.05;9.02;;;;;;;;;;5072885;28;20115;-77
2024/03/04 05:09:00;;;;;;;16.60;9.35;;;;;;;;;;5073150;28;20028;-77
2024/03/04 05:11:27;;;;;;;18.80;9.50;;;;;;;;;;5074090;28;20066;-77
2024/03/04 05:13:53;;;;;;;17.80;8.52;;;;;;;;;;5074216;28;20460;-77
2024/03/04 05:16:19;;;;;;;14.18;7.78;;;;;;;;;;5072679;28;20028;-77
2024/03/04 05:18:45;;;;;;;18.30;9.23;;;;;;;;;;5073746;28;20049;-76
2024/03/04 05:21:12;;;;;;;15.70;8.82;;;;;;;;;;5072802;28;20021;-77
2024/03/04 05:23:39;;;;;;;12.82;6.30;;;;;;;;;;5072671;28;20392;-76
2024/03/04 05:26:05;;;;;;;13.05;6.10;;;;;;;;;;5072701;28;20052;-77
2024/03/04 05:28:31;;;;;;;19.83;9.90;;;;;;;;;;5072438;28;20035;-78
2024/03/04 05:30:57;;;;;;;18.70;9.45;;;;;;;;;;5072588;28;20025;-77
2024/03/04 05:33:23;;;;;;;20.05;9.55;;;;;;;;;;5073276;28;20529;-77
2024/03/04 05:35:49;;;;;;;15.48;8.07;;;;;;;;;;5073777;28;20020;-78
2024/03/04 05:38:15;;;;;;;18.67;9.30;;;;;;;;;;5071921;28;20052;-77
2024/03/04 05:40:41;;;;;;;18.15;8.93;;;;;;;;;;5072520;28;20028;-77
2024/03/04 05:43:07;;;;;;;19.33;8.85;;;;;;;;;;5073777;28;20082;-77
2024/03/04 05:45:34;;;;;;;17.20;7.97;;;;;;;;;;5073339;28;20025;-76
2024/03/04 05:48:00;;;;;;;20.20;9.55;;;;;;;;;;5072160;28;20025;-77
2024/03/04 05:50:26;;;;;;;16.70;7.50;;;;;;;;;;5072095;28;20017;-77
2024/03/04 05:52:52;;;;;;;11.63;4.78;;;;;;;;;;5072186;28;20061;-77
2024/03/04 05:55:19;;;;;;;23.40;7.57;;;;;;;;;;5071864;28;20016;-77
2024/03/04 05:57:48;;;;;;;17.92;6.93;;;;;;;;;;5071681;28;20025;-77
2024/03/04 06:00:14;;;;;;;11.88;5.15;;;;;;;;;;5072998;28;20447;-77
2024/03/04 06:02:43;;;;;;;13.18;5.65;;;;;;;;;;5071854;28;20072;-77
2024/03/04 06:05:13;;;;;;;12.80;5.63;;;;;;;;;;5071967;28;20025;-77
2024/03/04 06:07:40;;;;;;;12.80;3.72;;;;;;;;;;5071798;28;20086;-77
2024/03/04 06:10:06;;;;;;;14.15;4.40;;;;;;;;;;5071955;28;20017;-77
2024/03/04 06:12:33;;;;;;;14.82;5.05;;;;;;;;;;5071474;28;20032;-77
2024/03/04 06:14:59;;;;;;;10.73;4.57;;;;;;;;;;5071662;28;20028;-76
2024/03/04 06:17:26;;;;;;;8.40;3.17;;;;;;;;;;5071197;28;20020;-77
2024/03/04 06:19:53;;;;;;;11.13;4.53;;;;;;;;;;5071673;28;20017;-76
2024/03/04 06:22:19;;;;;;;15.52;4.85;;;;;;;;;;5071259;28;20495;-77
2024/03/04 06:24:45;;;;;;;12.75;4.75;;;;;;;;;;5071812;28;20457;-77
2024/03/04 06:27:11;;;;;;;8.68;4.95;;;;;;;;;;5071938;28;20024;-76
2024/03/04 06:29:37;;;;;;;11.43;4.78;;;;;;;;;;5071724;28;20028;-76
2024/03/04 06:32:03;;;;;;;12.48;5.15;;;;;;;;;;5072049;28;20448;-74
2024/03/04 06:34:30;;;;;;;11.27;4.80;;;;;;;;;;5071909;28;20089;-75
2024/03/04 06:36:57;;;;;;;12.13;4.15;;;;;;;;;;5072781;28;20020;-76
2024/03/04 06:39:23;;;;;;;18.25;6.68;;;;;;;;;;5071097;28;20021;-76
2024/03/04 06:41:49;;;;;;;16.50;6.60;;;;;;;;;;5071193;28;20032;-76
2024/03/04 06:44:15;;;;;;;14.27;6.50;;;;;;;;;;5072027;28;20073;-76
2024/03/04 06:46:41;;;;;;;15.57;5.43;;;;;;;;;;5071060;28;20020;-75
2024/03/04 06:49:07;;;;;;;9.77;3.65;;;;;;;;;;5072536;28;20024;-75
2024/03/04 06:51:35;;;;;;;7.70;3.58;;;;;;;;;;5072213;28;20032;-76
2024/03/04 06:54:11;;;;;;;8.43;3.20;;;;;;;;;;5071207;28;20021;-76
2024/03/04 06:56:37;;;;;;;7.85;2.95;;;;;;;;;;5070780;28;20622;-77
2024/03/04 06:59:03;;;;;;;10.85;3.00;;;;;;;;;;5071006;28;20032;-77
2024/03/04 07:01:30;;;;;;;7.85;3.17;;;;;;;;;;5070727;28;20020;-77
2024/03/04 07:03:56;;;;;;;6.45;3.25;;;;;;;;;;5072194;28;20025;-75
2024/03/04 07:06:22;;;;;;;7.15;2.83;;;;;;;;;;5070654;28;20033;-76
2024/03/04 07:08:48;;;;;;;7.55;3.15;;;;;;;;;;5070813;28;20016;-76
2024/03/04 07:11:15;;;;;;;9.18;3.42;;;;;;;;;;5070858;28;20056;-76
2024/03/04 07:13:41;;;;;;;9.35;3.47;;;;;;;;;;5070189;28;20038;-76
2024/03/04 07:16:07;;;;;;;5.65;2.70;;;;;;;;;;5070272;28;20054;-75
2024/03/04 07:18:37;;;;;;;7.18;3.60;;;;;;;;;;5070436;28;20539;-77
2024/03/04 07:21:03;;;;;;;6.53;3.28;;;;;;;;;;5070766;28;20025;-77
2024/03/04 07:23:29;;;;;;;7.68;3.83;;;;;;;;;;5070396;28;20039;-76
2024/03/04 07:25:55;;;;;;;8.57;3.35;;;;;;;;;;5072111;28;20025;-76
2024/03/04 07:28:21;;;;;;;7.03;3.58;;;;;;;;;;5070402;28;20024;-76
2024/03/04 07:30:49;;;;;;;6.75;3.47;;;;;;;;;;5070638;28;20532;-76
2024/03/04 07:33:15;;;;;;;8.15;4.38;;;;;;;;;;5071933;28;20445;-76
2024/03/04 07:35:44;;;;;;;7.22;3.25;;;;;;;;;;5070125;28;20460;-76
2024/03/04 07:38:10;;;;;;;10.57;4.53;;;;;;;;;;5071654;28;20016;-76
2024/03/04 07:40:36;;;;;;;8.82;4.32;;;;;;;;;;5071426;28;20020;-76
2024/03/04 07:43:02;;;;;;;5.38;2.30;;;;;;;;;;5070381;28;20086;-75
2024/03/04 07:45:32;;;;;;;9.70;2.70;;;;;;;;;;5070282;28;20372;-76
2024/03/04 07:47:58;;;;;;;7.32;2.17;;;;;;;;;;5071604;28;20388;-76
2024/03/04 07:50:24;;;;;;;9.02;3.83;;;;;;;;;;5071658;28;20029;-75
2024/03/04 07:52:53;;;;;;;9.88;4.82;;;;;;;;;;5071559;28;20411;-75
2024/03/04 07:55:19;;;;;;;10.40;5.15;;;;;;;;;;5064864;28;20029;-75
2024/03/04 07:57:45;;;;;;;10.90;5.05;;;;;;;;;;5056111;28;20040;-76
2024/03/04 08:00:13;;;;;;;10.60;5.28;;;;;;;;;;5054388;28;20476;-75
2024/03/04 08:02:41;;;;;;;9.57;4.78;;;;;;;;;;5055190;28;20040;-76
2024/03/04 08:05:07;;;;;;;7.00;3.15;;;;;;;;;;5055600;28;20017;-76
2024/03/04 08:07:33;;;;;;;7.35;4.35;;;;;;;;;;5054143;28;20488;-76
2024/03/04 08:09:59;;;;;;;13.18;4.38;;;;;;;;;;5055390;28;20029;-77
2024/03/04 08:12:25;;;;;;;9.93;4.05;;;;;;;;;;5053813;28;20025;-76
2024/03/04 08:14:51;;;;;;;5.90;2.70;;;;;;;;;;5055288;28;20029;-77
2024/03/04 08:17:17;;;;;;;8.85;4.18;;;;;;;;;;5053894;28;20025;-76
2024/03/04 08:19:48;;;;;;;9.93;4.70;;;;;;;;;;5053609;28;20547;-76
2024/03/04 08:22:14;;;;;;;10.38;4.80;;;;;;;;;;5054610;28;20128;-75
2024/03/04 08:24:43;;;;;;;7.88;4.68;;;;;;;;;;5055468;28;20107;-76
2024/03/04 08:27:09;;;;;;;9.18;4.72;;;;;;;;;;5055874;28;20025;-76
2024/03/04 08:29:35;;;;;;;12.02;4.93;;;;;;;;;;5053490;28;20494;-75
2024/03/04 08:32:01;;;;;;;8.75;3.85;;;;;;;;;;5054764;28;20605;-76
2024/03/04 08:34:29;;;;;;;10.77;4.20;;;;;;;;;;5054771;28;20057;-77
2024/03/04 08:36:55;;;;;;;8.65;3.05;;;;;;;;;;5053516;28;20350;-77
2024/03/04 08:39:21;;;;;;;9.57;2.72;;;;;;;;;;5053573;28;20111;-77
2024/03/04 08:41:48;;;;;;;7.82;3.20;;;;;;;;;;5058522;28;20132;-75
2024/03/04 08:44:14;;;;;;;7.40;3.28;;;;;;;;;;5075027;28;20503;-76
2024/03/04 08:46:40;;;;;;;8.43;3.50;;;;;;;;;;5065410;28;20040;-76
2024/03/04 08:49:06;;;;;;;9.25;3.15;;;;;;;;;;5054766;28;20021;-76
2024/03/04 08:51:33;;;;;;;6.63;3.20;;;;;;;;;;5054425;28;20509;-76
2024/03/04 08:53:59;;;;;;;6.80;3.03;;;;;;;;;;5053277;28;20112;-76
2024/03/04 08:56:27;;;;;;;6.80;2.70;;;;;;;;;;5054353;28;20481;-76
2024/03/04 08:58:53;;;;;;;6.85;3.85;;;;;;;;;;5053147;28;20021;-76
2024/03/04 09:01:21;;;;;;;6.47;2.30;;;;;;;;;;5054579;28;20017;-76
2024/03/04 09:03:47;;;;;;;8.20;3.47;;;;;;;;;;5052736;28;20415;-76
2024/03/04 09:06:16;;;;;;;9.40;3.10;;;;;;;;;;5053090;28;20379;-77
2024/03/04 09:08:42;;;;;;;6.63;2.97;;;;;;;;;;5053768;28;20032;-77
2024/03/04 09:11:09;;;;;;;6.60;2.78;;;;;;;;;;5052910;28;20400;-77
2024/03/04 09:13:35;;;;;;;8.02;1.58;;;;;;;;;;5054008;28;20029;-77
2024/03/04 09:16:02;;;;;;;7.22;2.17;;;;;;;;;;5052854;28;20064;-77
2024/03/04 09:18:28;;;;;;;5.82;2.78;;;;;;;;;;5052286;28;20048;-76
2024/03/04 09:20:54;;;;;;;5.68;1.80;;;;;;;;;;5054458;28;20116;-77
2024/03/04 09:23:20;;;;;;;5.30;2.47;;;;;;;;;;5052693;28;20075;-77
2024/03/04 09:25:46;;;;;;;6.80;2.40;;;;;;;;;;5053802;28;20027;-77
2024/03/04 09:28:14;;;;;;;9.52;2.72;;;;;;;;;;5056052;28;20115;-77
2024/03/04 09:30:41;;;;;;;6.97;2.75;;;;;;;;;;5052559;28;20051;-77
2024/03/04 09:33:07;;;;;;;9.25;2.00;;;;;;;;;;5072605;28;20030;-76
2024/03/04 09:35:33;;;;;;;9.68;1.88;;;;;;;;;;5056969;28;20102;-76
2024/03/04 09:37:59;;;;;;;10.20;3.78;;;;;;;;;;5053720;28;20048;-76
2024/03/04 09:40:25;;;;;;;10.98;3.28;;;;;;;;;;5052391;28;20059;-76
2024/03/04 09:42:52;;;;;;;7.32;3.38;;;;;;;;;;5053317;28;20449;-77
2024/03/04 09:45:21;;;;;;;9.43;3.10;;;;;;;;;;5052323;28;20025;-76
2024/03/04 09:47:51;;;;;;;9.05;3.47;;;;;;;;;;5053655;28;20025;-75
2024/03/04 09:50:18;;;;;;;7.97;3.10;;;;;;;;;;5052121;28;20083;-76
2024/03/04 09:52:45;;;;;;;6.40;2.45;;;;;;;;;;5054232;28;20483;-76
2024/03/04 09:55:11;;;;;;;7.65;3.15;;;;;;;;;;5069105;28;20094;-77
2024/03/04 09:57:37;;;;;;;7.10;2.90;;;;;;;;;;5051938;28;20021;-77
2024/03/04 10:00:04;;;;;;;7.95;2.55;;;;;;;;;;5053500;28;20100;-77
2024/03/04 10:02:30;;;;;;;7.47;2.63;;;;;;;;;;5051833;28;20079;-77
2024/03/04 10:04:57;;;;;;;7.80;2.90;;;;;;;;;;5051982;28;20061;-77
2024/03/04 10:07:23;;;;;;;8.82;2.92;;;;;;;;;;5053338;28;20108;-77
2024/03/04 10:09:54;;;;;;;7.22;2.67;;;;;;;;;;5052971;28;20071;-76
2024/03/04 10:12:20;;;;;;;7.55;2.05;;;;;;;;;;5053515;28;20021;-76
2024/03/04 10:15:09;;;;;;;8.32;2.55;;;;;;;;;;5053344;28;20021;-76
2024/03/04 10:17:35;;;;;;;8.95;2.97;;;;;;;;;;5053949;28;20041;-76
2024/03/04 10:20:03;;;;;;;8.70;2.92;;;;;;;;;;5051147;28;20052;-76
2024/03/04 10:22:33;;;;;;;6.07;2.47;;;;;;;;;;5051304;28;20048;-75
2024/03/04 10:25:06;;;;;;;7.93;3.05;;;;;;;;;;5051493;28;20449;-77
2024/03/04 10:27:33;;;;;;;8.10;2.85;;;;;;;;;;5051222;28;20029;-76
2024/03/04 10:30:12;;;;;;;13.10;2.63;;;;;;;;;;5051358;28;20029;-76
2024/03/04 10:32:39;;;;;;;7.20;2.60;;;;;;;;;;5051186;28;20115;-77
2024/03/04 10:35:06;;;;;;;11.27;3.15;;;;;;;;;;5052747;28;20112;-76
2024/03/04 10:37:32;;;;;;;8.13;2.58;;;;;;;;;;5052339;28;20025;-76
2024/03/04 10:39:58;;;;;;;7.82;2.65;;;;;;;;;;5052256;28;20385;-76
2024/03/04 10:42:24;;;;;;;7.32;2.30;;;;;;;;;;5051118;28;20039;-76
2024/03/04 10:44:52;;;;;;;6.25;2.30;;;;;;;;;;5050934;28;20025;-76
2024/03/04 10:47:21;;;;;;;8.25;2.78;;;;;;;;;;5051085;28;20035;-76
2024/03/04 10:49:48;;;;;;;5.13;2.00;;;;;;;;;;5052134;28;20029;-77
2024/03/04 10:52:14;;;;;;;4.97;1.75;;;;;;;;;;5051073;28;20033;-77
2024/03/04 10:54:44;;;;;;;8.02;2.25;;;;;;;;;;5050729;28;20025;-76
2024/03/04 10:57:26;;;;;;;5.85;2.28;;;;;;;;;;5051076;28;20055;-76
2024/03/04 11:00:01;;;;;;;5.03;1.60;;;;;;;;;;5051710;28;20104;-76
2024/03/04 11:02:46;;;;;;;6.30;1.98;;;;;;;;;;5050816;28;20064;-76
2024/03/04 11:05:13;;;;;;;6.80;2.25;;;;;;;;;;5050860;28;20029;-76
2024/03/04 11:07:41;;;;;;;5.32;2.25;;;;;;;;;;5052046;28;20021;-76
2024/03/04 11:10:11;;;;;;;8.65;2.30;;;;;;;;;;5063154;28;20588;-76
2024/03/04 11:12:38;;;;;;;5.63;1.70;;;;;;;;;;5070672;28;20070;-76
2024/03/04 11:15:07;;;;;;;4.45;1.38;;;;;;;;;;5070592;28;20023;-76
2024/03/04 11:17:34;;;;;;;6.20;1.60;;;;;;;;;;5061659;28;20108;-76
2024/03/04 11:20:03;;;;;;;3.92;1.60;;;;;;;;;;5050424;28;20041;-76
2024/03/04 11:22:29;;;;;;;10.10;1.88;;;;;;;;;;5062156;28;20439;-76
2024/03/04 11:24:56;;;;;;;6.22;1.45;;;;;;;;;;5050880;28;20044;-76
2024/03/04 11:27:22;;;;;;;5.00;1.27;;;;;;;;;;5050588;28;20028;-76
2024/03/04 11:29:49;;;;;;;2.97;0.77;;;;;;;;;;5050386;28;20033;-76
2024/03/04 11:32:22;;;;;;;4.35;1.10;;;;;;;;;;5054715;28;20354;-75
2024/03/04 11:34:59;;;;;;;3.22;0.98;;;;;;;;;;5056096;28;20021;-76
2024/03/04 11:37:25;;;;;;;3.13;1.05;;;;;;;;;;5068313;28;20074;-76
2024/03/04 11:39:51;;;;;;;5.55;0.98;;;;;;;;;;5074111;28;20027;-76
2024/03/04 11:42:44;;;;;;;4.10;0.65;;;;;;;;;;5075519;28;20115;-76
2024/03/04 11:45:14;;;;;;;2.40;0.98;;;;;;;;;;5075589;28;20016;-75
2024/03/04 11:47:41;;;;;;;1.23;0.68;;;;;;;;;;5073831;28;20016;-76
2024/03/04 11:50:08;;;;;;;6.40;0.88;;;;;;;;;;5073948;28;20503;-76
2024/03/04 11:52:41;;;;;;;2.45;0.63;;;;;;;;;;5073781;28;20029;-76
2024/03/04 11:55:10;;;;;;;3.78;0.90;;;;;;;;;;5075815;28;20024;-76
2024/03/04 11:57:36;;;;;;;3.03;0.80;;;;;;;;;;5074129;28;20078;-76
2024/03/04 12:00:09;;;;;;;5.55;1.13;;;;;;;;;;5074225;28;20392;-75
2024/03/04 12:02:39;;;;;;;2.80;1.00;;;;;;;;;;5073975;28;20499;-75
2024/03/04 12:05:05;;;;;;;3.63;1.20;;;;;;;;;;5075580;28;20104;-76
2024/03/04 12:07:32;;;;;;;1.58;0.55;;;;;;;;;;5075001;28;20098;-76
2024/03/04 12:10:05;;;;;;;3.35;0.80;;;;;;;;;;5075750;28;20523;-75
2024/03/04 12:12:31;;;;;;;3.10;0.80;;;;;;;;;;5076696;28;20035;-76
2024/03/04 12:14:57;;;;;;;4.80;0.90;;;;;;;;;;5073801;28;20420;-75
2024/03/04 12:17:23;;;;;;;2.65;1.02;;;;;;;;;;5073778;28;20353;-75
2024/03/04 12:19:56;;;;;;;5.30;1.05;;;;;;;;;;5073431;28;20045;-76
2024/03/04 12:22:26;;;;;;;2.63;0.80;;;;;;;;;;5074006;28;20028;-76
2024/03/04 12:25:12;;;;;;;4.20;0.93;;;;;;;;;;5075264;28;20107;-76
2024/03/04 12:27:42;;;;;;;3.25;1.10;;;;;;;;;;5073391;28;20035;-76
2024/03/04 12:30:14;;;;;;;4.10;0.80;;;;;;;;;;5073951;28;20024;-76
2024/03/04 12:32:45;;;;;;;3.05;0.60;;;;;;;;;;5074679;28;20021;-76
2024/03/04 12:35:15;;;;;;;2.50;0.80;;;;;;;;;;5073547;28;20028;-76
2024/03/04 12:37:43;;;;;;;1.85;0.70;;;;;;;;;;5074482;28;20495;-76
2024/03/04 12:40:09;;;;;;;3.40;0.80;;;;;;;;;;5074493;28;20070;-76
2024/03/04 12:42:35;;;;;;;4.07;1.08;;;;;;;;;;5073682;28;20055;-76
2024/03/04 12:45:04;;;;;;;2.42;1.00;;;;;;;;;;5073492;28;20119;-76
2024/03/04 12:47:30;;;;;;;1.77;0.80;;;;;;;;;;5073395;28;20024;-77
2024/03/04 12:49:56;;;;;;;2.95;0.90;;;;;;;;;;5072915;28;20021;-77
2024/03/04 12:52:23;;;;;;;3.28;0.90;;;;;;;;;;5073181;28;20483;-77
2024/03/04 12:54:49;;;;;;;4.90;1.00;;;;;;;;;;5072893;28;20415;-77
2024/03/04 12:57:15;;;;;;;3.50;1.30;;;;;;;;;;5073132;28;20025;-77
2024/03/04 12:59:44;;;;;;;2.78;1.10;;;;;;;;;;5072818;28;20028;-77
2024/03/04 13:02:10;;;;;;;4.10;1.40;;;;;;;;;;5073007;28;20082;-78
2024/03/04 13:04:36;;;;;;;2.97;0.90;;;;;;;;;;5073053;28;20027;-75
2024/03/04 13:07:03;;;;;;;5.60;1.10;;;;;;;;;;5073784;28;20021;-76
2024/03/04 13:09:29;;;;;;;5.57;1.20;;;;;;;;;;5074503;28;20097;-76
2024/03/04 13:11:55;;;;;;;5.28;1.50;;;;;;;;;;5073644;28;20472;-76
2024/03/04 13:14:21;;;;;;;2.97;0.90;;;;;;;;;;5072553;28;20041;-76
2024/03/04 13:16:50;;;;;;;3.83;1.30;;;;;;;;;;5072522;28;20111;-76
2024/03/04 13:19:16;;;;;;;3.40;1.38;;;;;;;;;;5072627;28;20404;-76
2024/03/04 13:21:42;;;;;;;2.10;1.25;;;;;;;;;;5072419;28;20423;-76
2024/03/04 13:24:08;;;;;;;1.30;0.75;;;;;;;;;;5072663;28;20472;-76
2024/03/04 13:26:35;;;;;;;2.08;0.80;;;;;;;;;;5072611;28;20391;-76
2024/03/04 13:29:01;;;;;;;2.90;0.95;;;;;;;;;;5073487;28;20437;-76
2024/03/04 13:31:27;;;;;;;4.07;0.77;;;;;;;;;;5072109;28;20024;-76
2024/03/04 13:33:53;;;;;;;3.10;0.80;;;;;;;;;;5071428;28;20063;-76
2024/03/04 13:36:19;;;;;;;2.55;0.85;;;;;;;;;;5072001;28;20025;-76
2024/03/04 13:38:45;;;;;;;5.15;1.40;;;;;;;;;;5072673;28;20021;-77
2024/03/04 13:41:11;;;;;;;1.15;0.70;;;;;;;;;;5068764;28;20035;-76
2024/03/04 13:43:38;;;;;;;2.38;0.80;;;;;;;;;;5056089;28;20037;-76
2024/03/04 13:46:06;;;;;;;3.25;0.70;;;;;;;;;;5051909;28;20048;-76
2024/03/04 13:48:32;;;;;;;3.92;1.13;;;;;;;;;;5058864;28;20033;-76
2024/03/04 13:50:58;;;;;;;3.50;1.40;;;;;;;;;;5070769;28;20035;-78
2024/03/04 13:53:24;;;;;;;1.45;0.80;;;;;;;;;;5073341;28;20032;-77
2024/03/04 13:55:51;;;;;;;3.08;1.23;;;;;;;;;;5072050;28;20088;-76
2024/03/04 13:58:17;;;;;;;4.10;1.00;;;;;;;;;;5072496;28;20021;-76
2024/03/04 14:00:43;;;;;;;5.05;1.20;;;;;;;;;;5072039;28;20036;-76
2024/03/04 14:03:09;;;;;;;2.22;0.70;;;;;;;;;;5072898;28;20033;-76
2024/03/04 14:05:37;;;;;;;5.10;1.25;;;;;;;;;;5072228;28;20025;-76
2024/03/04 14:08:03;;;;;;;5.43;1.38;;;;;;;;;;5072894;28;20024;-77
2024/03/04 14:10:29;;;;;;;3.65;1.08;;;;;;;;;;5073168;28;20032;-77
2024/03/04 14:12:55;;;;;;;4.40;1.20;;;;;;;;;;5071595;28;20087;-77
2024/03/04 14:15:21;;;;;;;3.10;1.10;;;;;;;;;;5068789;28;20485;-77
2024/03/04 14:17:49;;;;;;;4.65;1.15;;;;;;;;;;5069970;28;20503;-78
2024/03/04 14:20:15;;;;;;;2.22;1.10;;;;;;;;;;5073047;28;20115;-78
2024/03/04 14:22:41;;;;;;;3.67;1.10;;;;;;;;;;5072351;28;20060;-77
2024/03/04 14:25:07;;;;;;;4.32;0.80;;;;;;;;;;5071853;28;20024;-77
2024/03/04 14:27:33;;;;;;;2.80;0.50;;;;;;;;;;5071352;28;20020;-76
2024/03/04 14:29:59;;;;;;;1.60;0.60;;;;;;;;;;5072597;28;20452;-76
2024/03/04 14:32:25;;;;;;;2.92;0.98;;;;;;;;;;5071719;28;20115;-76